createdAt,value
2023-07-28T00:00:06.791Z,0.00
2023-07-28T00:01:06.813Z,0.00
2023-07-28T00:02:06.868Z,0.00
2023-07-28T00:03:06.923Z,0.00
2023-07-28T00:04:06.929Z,0.00
2023-07-28T00:05:06.955Z,0.00
2023-07-28T00:06:06.909Z,0.00
2023-07-28T00:07:06.925Z,0.00
2023-07-28T00:08:06.983Z,0.00
2023-07-28T00:09:06.954Z,0.00
2023-07-28T00:10:07.003Z,0.00
2023-07-28T00:11:06.993Z,0.00
2023-07-28T00:12:07.015Z,0.00
2023-07-28T00:13:07.034Z,0.00
2023-07-28T00:14:07.048Z,0.00
2023-07-28T00:15:07.078Z,0.00
2023-07-28T00:16:07.111Z,0.00
2023-07-28T00:17:07.114Z,0.00
2023-07-28T00:18:07.125Z,0.00
2023-07-28T00:19:07.150Z,0.00
2023-07-28T00:20:07.162Z,0.00
2023-07-28T00:21:07.182Z,0.00
2023-07-28T00:22:07.200Z,0.00
2023-07-28T00:23:07.220Z,0.00
2023-07-28T00:24:07.238Z,0.00
2023-07-28T00:25:07.262Z,0.00
2023-07-28T00:26:07.276Z,0.00
2023-07-28T00:27:07.298Z,0.00
2023-07-28T00:28:07.401Z,0.00
2023-07-28T00:29:07.346Z,0.00
2023-07-28T00:30:07.362Z,0.00
2023-07-28T00:31:07.382Z,0.00
2023-07-28T00:32:07.413Z,0.00
2023-07-28T00:33:07.413Z,0.00
2023-07-28T00:34:07.439Z,0.00
2023-07-28T00:35:07.469Z,0.00
2023-07-28T00:36:07.481Z,0.00
2023-07-28T00:37:07.496Z,0.00
2023-07-28T00:38:07.504Z,0.00
2023-07-28T00:39:07.545Z,0.00
2023-07-28T00:40:07.563Z,0.00
2023-07-28T00:41:07.560Z,0.00
2023-07-28T00:42:07.598Z,0.00
2023-07-28T00:43:07.615Z,0.00
2023-07-28T00:44:07.624Z,0.00
2023-07-28T00:45:07.639Z,0.00
2023-07-28T00:46:07.710Z,0.00
2023-07-28T00:47:07.677Z,0.00
2023-07-28T00:48:07.716Z,0.00
2023-07-28T00:49:07.717Z,0.00
2023-07-28T00:50:07.731Z,0.00
2023-07-28T00:51:07.753Z,0.00
2023-07-28T00:52:07.770Z,0.00
2023-07-28T00:53:07.796Z,0.00
2023-07-28T00:54:07.825Z,0.00
2023-07-28T00:55:07.845Z,0.00
2023-07-28T00:56:07.848Z,0.00
2023-07-28T00:57:07.864Z,0.00
2023-07-28T00:58:07.884Z,0.00
2023-07-28T00:59:07.902Z,0.00
2023-07-28T01:00:07.945Z,0.00
2023-07-28T01:01:07.999Z,0.00
2023-07-28T01:02:07.959Z,0.00
2023-07-28T01:03:08.035Z,0.00
2023-07-28T01:04:08.007Z,0.00
2023-07-28T01:05:08.048Z,0.00
2023-07-28T01:06:08.038Z,0.00
2023-07-28T01:07:08.056Z,0.00
2023-07-28T01:08:08.078Z,0.00
2023-07-28T01:09:08.097Z,0.00
2023-07-28T01:10:08.127Z,0.00
2023-07-28T01:11:08.133Z,0.00
2023-07-28T01:12:08.166Z,0.00
2023-07-28T01:13:08.168Z,0.00
2023-07-28T01:14:08.190Z,0.00
2023-07-28T01:15:08.217Z,0.00
2023-07-28T01:16:08.268Z,0.00
2023-07-28T01:17:08.250Z,0.00
2023-07-28T01:18:08.271Z,0.00
2023-07-28T01:19:08.286Z,0.00
2023-07-28T01:20:08.314Z,0.00
2023-07-28T01:21:08.324Z,0.00
2023-07-28T01:22:08.342Z,0.00
2023-07-28T01:23:08.364Z,0.00
2023-07-28T01:24:08.387Z,0.00
2023-07-28T01:25:08.402Z,0.00
2023-07-28T01:26:08.422Z,0.00
2023-07-28T01:27:08.465Z,0.00
2023-07-28T01:28:08.482Z,0.00
2023-07-28T01:29:08.473Z,0.00
2023-07-28T01:30:08.500Z,0.00
2023-07-28T01:31:08.530Z,0.00
2023-07-28T01:32:08.539Z,0.00
2023-07-28T01:33:08.594Z,0.00
2023-07-28T01:34:08.573Z,0.00
2023-07-28T01:35:08.593Z,0.00
2023-07-28T01:36:08.613Z,0.00
2023-07-28T01:37:08.633Z,0.00
2023-07-28T01:38:08.650Z,0.00
2023-07-28T01:39:08.671Z,0.00
2023-07-28T01:40:08.690Z,0.00
2023-07-28T01:41:08.709Z,0.00
2023-07-28T01:42:08.728Z,0.00
2023-07-28T01:43:08.750Z,0.00
2023-07-28T01:44:08.770Z,0.00
2023-07-28T01:45:08.795Z,0.00
2023-07-28T01:46:08.806Z,0.00
2023-07-28T01:47:08.825Z,0.00
2023-07-28T01:48:08.850Z,0.00
2023-07-28T01:49:09.363Z,0.00
2023-07-28T01:50:08.884Z,0.00
2023-07-28T01:51:08.902Z,0.00
2023-07-28T01:52:08.925Z,0.00
2023-07-28T01:53:08.942Z,0.00
2023-07-28T01:54:08.967Z,0.00
2023-07-28T01:55:08.979Z,0.00
2023-07-28T01:56:09.002Z,0.00
2023-07-28T01:57:09.014Z,0.00
2023-07-28T01:58:09.035Z,0.00
2023-07-28T01:59:09.057Z,0.00
2023-07-28T02:00:09.071Z,0.00
2023-07-28T02:01:09.146Z,0.00
2023-07-28T02:02:09.114Z,0.00
2023-07-28T02:03:09.192Z,0.00
2023-07-28T02:04:09.191Z,0.00
2023-07-28T02:05:09.169Z,0.00
2023-07-28T02:06:09.207Z,0.00
2023-07-28T02:07:09.209Z,0.00
2023-07-28T02:08:09.234Z,0.00
2023-07-28T02:09:09.245Z,0.00
2023-07-28T02:10:09.269Z,0.00
2023-07-28T02:11:09.302Z,0.00
2023-07-28T02:12:09.306Z,0.00
2023-07-28T02:13:09.327Z,0.00
2023-07-28T02:14:09.342Z,0.00
2023-07-28T02:15:09.367Z,0.00
2023-07-28T02:16:09.380Z,0.00
2023-07-28T02:17:09.405Z,0.00
2023-07-28T02:18:09.452Z,0.00
2023-07-28T02:19:09.437Z,0.00
2023-07-28T02:20:09.475Z,0.00
2023-07-28T02:21:09.508Z,0.00
2023-07-28T02:22:09.496Z,0.00
2023-07-28T02:23:09.515Z,0.00
2023-07-28T02:24:09.534Z,0.00
2023-07-28T02:25:09.557Z,0.00
2023-07-28T02:26:09.575Z,0.00
2023-07-28T02:27:09.595Z,0.00
2023-07-28T02:28:09.706Z,0.00
2023-07-28T02:29:09.637Z,0.00
2023-07-28T02:30:09.683Z,0.00
2023-07-28T02:31:09.718Z,0.00
2023-07-28T02:32:09.688Z,0.00
2023-07-28T02:33:09.760Z,0.00
2023-07-28T02:34:09.729Z,0.00
2023-07-28T02:35:09.759Z,0.00
2023-07-28T02:36:09.769Z,0.00
2023-07-28T02:37:09.784Z,0.00
2023-07-28T02:38:09.833Z,0.00
2023-07-28T02:39:09.822Z,0.00
2023-07-28T02:40:09.844Z,0.00
2023-07-28T02:41:09.860Z,0.00
2023-07-28T02:42:09.884Z,0.00
2023-07-28T02:43:09.899Z,0.00
2023-07-28T02:44:09.927Z,0.00
2023-07-28T02:45:09.937Z,0.00
2023-07-28T02:46:09.996Z,4.00
2023-07-28T02:47:09.990Z,4.00
2023-07-28T02:48:10.014Z,4.00
2023-07-28T02:49:10.022Z,0.00
2023-07-28T02:50:10.033Z,4.00
2023-07-28T02:51:10.053Z,4.00
2023-07-28T02:52:10.079Z,4.00
2023-07-28T02:53:10.094Z,4.00
2023-07-28T02:54:10.112Z,4.00
2023-07-28T02:55:10.133Z,4.00
2023-07-28T02:56:10.152Z,8.00
2023-07-28T02:57:10.169Z,8.00
2023-07-28T02:58:10.193Z,8.00
2023-07-28T02:59:10.210Z,12.00
2023-07-28T03:00:10.230Z,12.00
2023-07-28T03:01:10.248Z,16.00
2023-07-28T03:02:10.269Z,16.00
2023-07-28T03:03:10.311Z,16.00
2023-07-28T03:04:10.315Z,20.00
2023-07-28T03:05:10.329Z,20.00
2023-07-28T03:06:10.342Z,28.00
2023-07-28T03:07:10.380Z,24.00
2023-07-28T03:08:10.382Z,28.00
2023-07-28T03:09:10.402Z,24.00
2023-07-28T03:10:10.426Z,24.00
2023-07-28T03:11:10.442Z,24.00
2023-07-28T03:12:10.458Z,32.00
2023-07-28T03:13:10.478Z,28.00
2023-07-28T03:14:10.503Z,28.00
2023-07-28T03:15:10.529Z,44.00
2023-07-28T03:16:10.544Z,44.00
2023-07-28T03:17:10.557Z,44.00
2023-07-28T03:18:10.577Z,36.00
2023-07-28T03:19:10.600Z,40.00
2023-07-28T03:20:10.615Z,48.00
2023-07-28T03:21:10.638Z,40.00
2023-07-28T03:22:10.652Z,44.00
2023-07-28T03:23:10.673Z,52.00
2023-07-28T03:24:10.694Z,76.00
2023-07-28T03:25:10.713Z,92.00
2023-07-28T03:26:10.732Z,108.00
2023-07-28T03:27:10.753Z,92.00
2023-07-28T03:28:10.826Z,100.00
2023-07-28T03:29:10.794Z,124.00
2023-07-28T03:30:10.848Z,148.00
2023-07-28T03:31:10.833Z,188.00
2023-07-28T03:32:10.885Z,124.00
2023-07-28T03:33:10.870Z,124.00
2023-07-28T03:34:10.890Z,148.00
2023-07-28T03:35:10.908Z,128.00
2023-07-28T03:36:10.925Z,132.00
2023-07-28T03:37:10.945Z,132.00
2023-07-28T03:38:10.977Z,124.00
2023-07-28T03:39:10.986Z,136.00
2023-07-28T03:40:11.005Z,148.00
2023-07-28T03:41:11.031Z,196.00
2023-07-28T03:42:11.040Z,204.00
2023-07-28T03:43:11.067Z,272.00
2023-07-28T03:44:11.080Z,344.00
2023-07-28T03:45:11.104Z,464.00
2023-07-28T03:46:11.158Z,408.00
2023-07-28T03:47:11.147Z,416.00
2023-07-28T03:48:11.162Z,396.00
2023-07-28T03:49:11.184Z,380.00
2023-07-28T03:50:11.208Z,444.00
2023-07-28T03:51:11.219Z,484.00
2023-07-28T03:52:11.237Z,612.00
2023-07-28T03:53:11.256Z,540.00
2023-07-28T03:54:11.279Z,624.00
2023-07-28T03:55:11.298Z,772.00
2023-07-28T03:56:11.311Z,840.00
2023-07-28T03:57:11.345Z,588.00
2023-07-28T03:58:11.373Z,504.00
2023-07-28T03:59:11.400Z,564.00
2023-07-28T04:00:11.398Z,620.00
2023-07-28T04:01:11.542Z,748.00
2023-07-28T04:02:11.436Z,696.00
2023-07-28T04:03:11.451Z,892.00
2023-07-28T04:04:11.477Z,1196.00
2023-07-28T04:05:11.495Z,940.00
2023-07-28T04:06:11.509Z,924.00
2023-07-28T04:07:11.530Z,1128.00
2023-07-28T04:08:11.572Z,1460.00
2023-07-28T04:09:11.572Z,1356.00
2023-07-28T04:10:11.621Z,1512.00
2023-07-28T04:11:11.605Z,1316.00
2023-07-28T04:12:11.626Z,1656.00
2023-07-28T04:13:11.651Z,1964.00
2023-07-28T04:14:11.671Z,2352.00
2023-07-28T04:15:11.690Z,2420.00
2023-07-28T04:16:11.769Z,2544.00
2023-07-28T04:17:11.725Z,2152.00
2023-07-28T04:18:11.758Z,2052.00
2023-07-28T04:19:11.787Z,2744.00
2023-07-28T04:20:11.788Z,3424.00
2023-07-28T04:21:11.817Z,3472.00
2023-07-28T04:22:11.823Z,3840.00
2023-07-28T04:23:11.896Z,2848.00
2023-07-28T04:24:11.867Z,2744.00
2023-07-28T04:25:11.879Z,2772.00
2023-07-28T04:26:11.901Z,2560.00
2023-07-28T04:27:11.924Z,2128.00
2023-07-28T04:28:11.999Z,2080.00
2023-07-28T04:29:11.963Z,2036.00
2023-07-28T04:30:11.981Z,1860.00
2023-07-28T04:31:12.041Z,1688.00
2023-07-28T04:32:12.019Z,1676.00
2023-07-28T04:33:12.042Z,1452.00
2023-07-28T04:34:12.065Z,1632.00
2023-07-28T04:35:12.086Z,1684.00
2023-07-28T04:36:12.102Z,1840.00
2023-07-28T04:37:12.123Z,1652.00
2023-07-28T04:38:12.140Z,1992.00
2023-07-28T04:39:12.161Z,1760.00
2023-07-28T04:40:12.188Z,1456.00
2023-07-28T04:41:12.199Z,1140.00
2023-07-28T04:42:12.223Z,1468.00
2023-07-28T04:43:12.238Z,1480.00
2023-07-28T04:44:12.257Z,992.00
2023-07-28T04:45:12.284Z,964.00
2023-07-28T04:46:12.350Z,1252.00
2023-07-28T04:47:12.318Z,1188.00
2023-07-28T04:48:12.377Z,1268.00
2023-07-28T04:49:12.358Z,1184.00
2023-07-28T04:50:12.377Z,1228.00
2023-07-28T04:51:12.396Z,1520.00
2023-07-28T04:52:12.424Z,1528.00
2023-07-28T04:53:12.437Z,1736.00
2023-07-28T04:54:12.456Z,1428.00
2023-07-28T04:55:12.476Z,1568.00
2023-07-28T04:56:12.502Z,1928.00
2023-07-28T04:57:14.445Z,2472.00
2023-07-28T04:58:12.534Z,2836.00
2023-07-28T04:59:12.553Z,3328.00
2023-07-28T05:00:12.579Z,2464.00
2023-07-28T05:01:12.683Z,2500.00
2023-07-28T05:02:12.620Z,2716.00
2023-07-28T05:03:12.637Z,2872.00
2023-07-28T05:04:12.697Z,3192.00
2023-07-28T05:05:12.725Z,3456.00
2023-07-28T05:06:12.770Z,3380.00
2023-07-28T05:07:12.782Z,2424.00
2023-07-28T05:08:12.768Z,2004.00
2023-07-28T05:09:12.768Z,1868.00
2023-07-28T05:10:12.893Z,2624.00
2023-07-28T05:11:12.792Z,3068.00
2023-07-28T05:12:12.813Z,4988.00
2023-07-28T05:13:12.830Z,5932.00
2023-07-28T05:14:12.852Z,8040.00
2023-07-28T05:15:12.870Z,9804.00
2023-07-28T05:16:13.001Z,7480.00
2023-07-28T05:17:12.914Z,5900.00
2023-07-28T05:18:12.934Z,4400.00
2023-07-28T05:19:13.003Z,6072.00
2023-07-28T05:20:12.974Z,5388.00
2023-07-28T05:21:12.992Z,4952.00
2023-07-28T05:22:13.018Z,3724.00
2023-07-28T05:23:13.035Z,2884.00
2023-07-28T05:24:13.066Z,3680.00
2023-07-28T05:25:13.097Z,3932.00
2023-07-28T05:26:13.101Z,4236.00
2023-07-28T05:27:13.120Z,4180.00
2023-07-28T05:28:13.161Z,3284.00
2023-07-28T05:29:13.163Z,4008.00
2023-07-28T05:30:13.175Z,4208.00
2023-07-28T05:31:13.247Z,4168.00
2023-07-28T05:32:13.253Z,3716.00
2023-07-28T05:33:13.257Z,3880.00
2023-07-28T05:34:13.264Z,3764.00
2023-07-28T05:35:13.313Z,5148.00
2023-07-28T05:36:13.320Z,4316.00
2023-07-28T05:37:13.317Z,4788.00
2023-07-28T05:38:13.347Z,4352.00
2023-07-28T05:39:13.365Z,4424.00
2023-07-28T05:40:13.379Z,4384.00
2023-07-28T05:41:13.399Z,3952.00
2023-07-28T05:42:13.445Z,3172.00
2023-07-28T05:43:13.444Z,3388.00
2023-07-28T05:44:13.460Z,2996.00
2023-07-28T05:45:13.478Z,4496.00
2023-07-28T05:46:13.518Z,5568.00
2023-07-28T05:47:13.520Z,6888.00
2023-07-28T05:48:13.544Z,7680.00
2023-07-28T05:49:13.558Z,7520.00
2023-07-28T05:50:13.582Z,6704.00
2023-07-28T05:51:13.601Z,6316.00
2023-07-28T05:52:13.636Z,5488.00
2023-07-28T05:53:13.643Z,5780.00
2023-07-28T05:54:13.670Z,6420.00
2023-07-28T05:55:13.720Z,5576.00
2023-07-28T05:56:13.702Z,4524.00
2023-07-28T05:57:13.730Z,4836.00
2023-07-28T05:58:13.752Z,3784.00
2023-07-28T05:59:13.769Z,4132.00
2023-07-28T06:00:13.785Z,3724.00
2023-07-28T06:01:13.858Z,3728.00
2023-07-28T06:02:13.826Z,3676.00
2023-07-28T06:03:13.957Z,3612.00
2023-07-28T06:04:13.868Z,3668.00
2023-07-28T06:05:13.886Z,2924.00
2023-07-28T06:06:13.905Z,3224.00
2023-07-28T06:07:13.928Z,3852.00
2023-07-28T06:08:13.963Z,5488.00
2023-07-28T06:09:13.968Z,5232.00
2023-07-28T06:10:14.007Z,6788.00
2023-07-28T06:11:14.010Z,6180.00
2023-07-28T06:12:14.030Z,5360.00
2023-07-28T06:13:14.052Z,6320.00
2023-07-28T06:14:14.077Z,5288.00
2023-07-28T06:15:14.090Z,4432.00
2023-07-28T06:16:14.143Z,5812.00
2023-07-28T06:17:14.144Z,6036.00
2023-07-28T06:18:14.155Z,6820.00
2023-07-28T06:19:14.176Z,6212.00
2023-07-28T06:20:14.193Z,4852.00
2023-07-28T06:21:14.215Z,4264.00
2023-07-28T06:22:14.235Z,4608.00
2023-07-28T06:23:14.257Z,5052.00
2023-07-28T06:24:14.278Z,4640.00
2023-07-28T06:25:14.295Z,6664.00
2023-07-28T06:26:14.323Z,8444.00
2023-07-28T06:27:14.334Z,7400.00
2023-07-28T06:28:14.540Z,7656.00
2023-07-28T06:29:14.447Z,9252.00
2023-07-28T06:30:14.410Z,11008.00
2023-07-28T06:31:14.442Z,10348.00
2023-07-28T06:32:14.436Z,7256.00
2023-07-28T06:33:14.458Z,7624.00
2023-07-28T06:34:14.481Z,7624.00
2023-07-28T06:35:14.507Z,8348.00
2023-07-28T06:36:14.523Z,8304.00
2023-07-28T06:37:14.543Z,9136.00
2023-07-28T06:38:14.558Z,7492.00
2023-07-28T06:39:14.581Z,9040.00
2023-07-28T06:40:14.596Z,9020.00
2023-07-28T06:41:14.621Z,6620.00
2023-07-28T06:42:14.668Z,5984.00
2023-07-28T06:43:14.671Z,5856.00
2023-07-28T06:44:14.688Z,7168.00
2023-07-28T06:45:14.704Z,10364.00
2023-07-28T06:46:14.743Z,11984.00
2023-07-28T06:47:14.747Z,8964.00
2023-07-28T06:48:14.766Z,9452.00
2023-07-28T06:49:14.784Z,6408.00
2023-07-28T06:50:14.816Z,4848.00
2023-07-28T06:51:14.833Z,5928.00
2023-07-28T06:52:14.863Z,6776.00
2023-07-28T06:53:14.869Z,7316.00
2023-07-28T06:54:14.901Z,7732.00
2023-07-28T06:55:14.918Z,8836.00
2023-07-28T06:56:14.937Z,9484.00
2023-07-28T06:57:14.952Z,7536.00
2023-07-28T06:58:14.981Z,7412.00
2023-07-28T06:59:18.578Z,8964.00
2023-07-28T07:00:15.014Z,9688.00
2023-07-28T07:01:15.091Z,11628.00
2023-07-28T07:02:15.061Z,10716.00
2023-07-28T07:03:15.087Z,9724.00
2023-07-28T07:04:15.106Z,10860.00
2023-07-28T07:05:15.150Z,12244.00
2023-07-28T07:06:15.146Z,12740.00
2023-07-28T07:07:15.165Z,14020.00
2023-07-28T07:08:15.186Z,14044.00
2023-07-28T07:09:15.218Z,12796.00
2023-07-28T07:10:15.230Z,12820.00
2023-07-28T07:11:15.255Z,12832.00
2023-07-28T07:12:15.278Z,8800.00
2023-07-28T07:13:15.292Z,9196.00
2023-07-28T07:14:15.315Z,7604.00
2023-07-28T07:15:15.338Z,8144.00
2023-07-28T07:16:22.994Z,8248.00
2023-07-28T07:17:15.380Z,10072.00
2023-07-28T07:18:15.403Z,13508.00
2023-07-28T07:19:15.424Z,12440.00
2023-07-28T07:20:15.444Z,13548.00
2023-07-28T07:21:15.469Z,16380.00
2023-07-28T07:22:15.490Z,21760.00
2023-07-28T07:23:15.509Z,18240.00
2023-07-28T07:24:15.538Z,19488.00
2023-07-28T07:25:15.554Z,36480.00
2023-07-28T07:26:15.569Z,33632.00
2023-07-28T07:27:15.597Z,21728.00
2023-07-28T07:28:15.662Z,18848.00
2023-07-28T07:29:15.640Z,12972.00
2023-07-28T07:30:15.670Z,9704.00
2023-07-28T07:31:15.742Z,17728.00
2023-07-28T07:32:15.743Z,18240.00
2023-07-28T07:33:15.730Z,22400.00
2023-07-28T07:34:15.760Z,18208.00
2023-07-28T07:35:15.776Z,18208.00
2023-07-28T07:36:15.811Z,19360.00
2023-07-28T07:37:15.822Z,20320.00
2023-07-28T07:38:15.888Z,28320.00
2023-07-28T07:39:15.872Z,45472.00
2023-07-28T07:40:15.967Z,52192.00
2023-07-28T07:41:15.920Z,39040.00
2023-07-28T07:42:15.966Z,24096.00
2023-07-28T07:43:15.976Z,27840.00
2023-07-28T07:44:15.997Z,27968.00
2023-07-28T07:45:16.020Z,21984.00
2023-07-28T07:46:16.059Z,16028.00
2023-07-28T07:47:16.164Z,16876.00
2023-07-28T07:48:16.091Z,22112.00
2023-07-28T07:49:16.115Z,20544.00
2023-07-28T07:50:16.140Z,63008.00
2023-07-28T07:51:16.177Z,32608.00
2023-07-28T07:52:16.188Z,69472.00
2023-07-28T07:53:16.211Z,53152.00
2023-07-28T07:54:16.237Z,25824.00
2023-07-28T07:55:16.263Z,27296.00
2023-07-28T07:56:16.299Z,53952.00
2023-07-28T07:57:16.338Z,26944.00
2023-07-28T07:58:16.345Z,25216.00
2023-07-28T07:59:16.423Z,23968.00
2023-07-28T08:00:16.417Z,20608.00
2023-07-28T08:01:16.472Z,29024.00
2023-07-28T08:02:16.447Z,28448.00
2023-07-28T08:03:16.498Z,20064.00
2023-07-28T08:04:16.550Z,44704.00
2023-07-28T08:05:16.506Z,35744.00
2023-07-28T08:06:16.559Z,65664.00
2023-07-28T08:07:16.563Z,66944.00
2023-07-28T08:08:16.583Z,66688.00
2023-07-28T08:09:16.611Z,54208.00
2023-07-28T08:10:16.649Z,64480.00
2023-07-28T08:11:16.680Z,69376.00
2023-07-28T08:12:16.689Z,66720.00
2023-07-28T08:13:16.713Z,66976.00
2023-07-28T08:14:16.740Z,72192.00
2023-07-28T08:15:16.801Z,71360.00
2023-07-28T08:16:16.838Z,37312.00
2023-07-28T08:17:16.823Z,29984.00
2023-07-28T08:18:16.859Z,21824.00
2023-07-28T08:19:16.870Z,18336.00
2023-07-28T08:20:16.903Z,19808.00
2023-07-28T08:21:16.925Z,19744.00
2023-07-28T08:22:16.971Z,21856.00
2023-07-28T08:23:16.985Z,18944.00
2023-07-28T08:24:17.028Z,16788.00
2023-07-28T08:25:17.031Z,18272.00
2023-07-28T08:26:17.060Z,18912.00
2023-07-28T08:27:17.112Z,18528.00
2023-07-28T08:28:17.181Z,11784.00
2023-07-28T08:29:17.138Z,12380.00
2023-07-28T08:30:17.181Z,8496.00
2023-07-28T08:31:17.236Z,5724.00
2023-07-28T08:32:17.213Z,5544.00
2023-07-28T08:33:17.260Z,6972.00
2023-07-28T08:34:17.266Z,9676.00
2023-07-28T08:35:17.291Z,16304.00
2023-07-28T08:36:17.369Z,21888.00
2023-07-28T08:37:17.354Z,29728.00
2023-07-28T08:38:17.366Z,45088.00
2023-07-28T08:39:17.395Z,33312.00
2023-07-28T08:40:17.416Z,28160.00
2023-07-28T08:41:17.447Z,47872.00
2023-07-28T08:42:17.462Z,16128.00
2023-07-28T08:43:17.493Z,9120.00
2023-07-28T08:44:17.515Z,7296.00
2023-07-28T08:45:17.541Z,7380.00
2023-07-28T08:46:17.599Z,9988.00
2023-07-28T08:47:17.585Z,13004.00
2023-07-28T08:48:17.710Z,14444.00
2023-07-28T08:49:17.632Z,13296.00
2023-07-28T08:50:17.654Z,14272.00
2023-07-28T08:51:17.684Z,17856.00
2023-07-28T08:52:17.704Z,23552.00
2023-07-28T08:53:17.732Z,50464.00
2023-07-28T08:54:17.756Z,38272.00
2023-07-28T08:55:17.779Z,30528.00
2023-07-28T08:56:17.805Z,27328.00
2023-07-28T08:57:17.831Z,27616.00
2023-07-28T08:58:17.857Z,29248.00
2023-07-28T08:59:17.878Z,25152.00
2023-07-28T09:00:17.992Z,23968.00
2023-07-28T09:01:18.019Z,25152.00
2023-07-28T09:02:18.000Z,25600.00
2023-07-28T09:03:18.019Z,44032.00
2023-07-28T09:04:17.996Z,61536.00
2023-07-28T09:05:18.043Z,40896.00
2023-07-28T09:06:18.043Z,59264.00
2023-07-28T09:07:18.066Z,48288.00
2023-07-28T09:08:18.112Z,36512.00
2023-07-28T09:09:18.118Z,29632.00
2023-07-28T09:10:18.203Z,22464.00
2023-07-28T09:11:18.793Z,14784.00
2023-07-28T09:12:18.202Z,11232.00
2023-07-28T09:13:18.312Z,7848.00
2023-07-28T09:14:18.250Z,13900.00
2023-07-28T09:15:18.271Z,25152.00
2023-07-28T09:16:18.382Z,22976.00
2023-07-28T09:17:18.412Z,15740.00
2023-07-28T09:18:18.378Z,13736.00
2023-07-28T09:19:18.375Z,9860.00
2023-07-28T09:20:18.480Z,9172.00
2023-07-28T09:21:18.426Z,6152.00
2023-07-28T09:22:18.455Z,6532.00
2023-07-28T09:23:18.473Z,8092.00
2023-07-28T09:24:18.499Z,13044.00
2023-07-28T09:25:18.537Z,15868.00
2023-07-28T09:26:18.546Z,11256.00
2023-07-28T09:27:18.641Z,16356.00
2023-07-28T09:28:18.686Z,23584.00
2023-07-28T09:29:18.719Z,29824.00
2023-07-28T09:30:18.644Z,54048.00
2023-07-28T09:31:18.757Z,38528.00
2023-07-28T09:32:18.692Z,33376.00
2023-07-28T09:33:18.716Z,33216.00
2023-07-28T09:34:18.742Z,30272.00
2023-07-28T09:35:18.768Z,27424.00
2023-07-28T09:36:18.842Z,26272.00
2023-07-28T09:37:18.848Z,24512.00
2023-07-28T09:38:18.839Z,33344.00
2023-07-28T09:39:18.865Z,36448.00
2023-07-28T09:40:18.897Z,35040.00
2023-07-28T09:41:18.936Z,32448.00
2023-07-28T09:42:18.938Z,31072.00
2023-07-28T09:43:18.962Z,31488.00
2023-07-28T09:44:18.993Z,24608.00
2023-07-28T09:45:31.064Z,23328.00
2023-07-28T09:46:19.077Z,22400.00
2023-07-28T09:47:19.136Z,20160.00
2023-07-28T09:48:19.092Z,21344.00
2023-07-28T09:49:19.125Z,23232.00
2023-07-28T09:50:19.140Z,23392.00
2023-07-28T09:51:19.165Z,22880.00
2023-07-28T09:52:19.201Z,21984.00
2023-07-28T09:53:19.236Z,28448.00
2023-07-28T09:54:19.242Z,26336.00
2023-07-28T09:55:19.267Z,26272.00
2023-07-28T09:56:19.299Z,27168.00
2023-07-28T09:57:19.315Z,47904.00
2023-07-28T09:58:19.342Z,32576.00
2023-07-28T09:59:19.370Z,22208.00
2023-07-28T10:00:19.387Z,20736.00
2023-07-28T10:01:19.465Z,38336.00
2023-07-28T10:02:19.494Z,24128.00
2023-07-28T10:03:19.552Z,32640.00
2023-07-28T10:04:19.492Z,40448.00
2023-07-28T10:05:19.525Z,39936.00
2023-07-28T10:06:19.546Z,71552.00
2023-07-28T10:07:19.571Z,80896.00
2023-07-28T10:08:19.599Z,83584.00
2023-07-28T10:09:19.621Z,32704.00
2023-07-28T10:10:19.653Z,72448.00
2023-07-28T10:11:19.686Z,80832.00
2023-07-28T10:12:19.715Z,60352.00
2023-07-28T10:13:19.728Z,54592.00
2023-07-28T10:14:19.781Z,49024.00
2023-07-28T10:15:19.803Z,46720.00
2023-07-28T10:16:19.875Z,29344.00
2023-07-28T10:17:19.852Z,98144.00
2023-07-28T10:18:19.867Z,78688.00
2023-07-28T10:19:19.900Z,34400.00
2023-07-28T10:20:19.936Z,39712.00
2023-07-28T10:21:19.953Z,35648.00
2023-07-28T10:22:20.003Z,27328.00
2023-07-28T10:23:20.018Z,20544.00
2023-07-28T10:24:20.052Z,14400.00
2023-07-28T10:25:21.136Z,12244.00
2023-07-28T10:26:20.106Z,13072.00
2023-07-28T10:27:20.136Z,17440.00
2023-07-28T10:28:20.172Z,20224.00
2023-07-28T10:29:20.192Z,25888.00
2023-07-28T10:30:20.210Z,27200.00
2023-07-28T10:31:20.247Z,26336.00
2023-07-28T10:32:20.277Z,24224.00
2023-07-28T10:33:20.288Z,23808.00
2023-07-28T10:34:20.313Z,20736.00
2023-07-28T10:35:20.342Z,19872.00
2023-07-28T10:36:20.367Z,26656.00
2023-07-28T10:37:20.392Z,27168.00
2023-07-28T10:38:20.419Z,26144.00
2023-07-28T10:39:20.443Z,26080.00
2023-07-28T10:40:20.473Z,26656.00
2023-07-28T10:41:20.500Z,63584.00
2023-07-28T10:42:20.525Z,66336.00
2023-07-28T10:43:20.550Z,46144.00
2023-07-28T10:44:20.575Z,45024.00
2023-07-28T10:45:20.600Z,30464.00
2023-07-28T10:46:20.646Z,46496.00
2023-07-28T10:47:20.652Z,90816.00
2023-07-28T10:48:20.695Z,81440.00
2023-07-28T10:49:20.718Z,79936.00
2023-07-28T10:50:20.739Z,80736.00
2023-07-28T10:51:20.770Z,77536.00
2023-07-28T10:52:20.792Z,89760.00
2023-07-28T10:53:20.895Z,83456.00
2023-07-28T10:54:20.861Z,30400.00
2023-07-28T10:55:20.878Z,24896.00
2023-07-28T10:56:20.906Z,25184.00
2023-07-28T10:57:20.935Z,44704.00
2023-07-28T10:58:20.982Z,76352.00
2023-07-28T10:59:20.998Z,77600.00
2023-07-28T11:00:21.026Z,29088.00
2023-07-28T11:01:21.074Z,33376.00
2023-07-28T11:02:21.127Z,25280.00
2023-07-28T11:03:21.173Z,26336.00
2023-07-28T11:04:21.166Z,31616.00
2023-07-28T11:05:21.179Z,59392.00
2023-07-28T11:06:21.202Z,34080.00
2023-07-28T11:07:21.235Z,32032.00
2023-07-28T11:08:21.276Z,34656.00
2023-07-28T11:09:21.316Z,38368.00
2023-07-28T11:10:21.322Z,35168.00
2023-07-28T11:11:21.354Z,45024.00
2023-07-28T11:12:21.411Z,44832.00
2023-07-28T11:14:21.443Z,39392.00
2023-07-28T11:15:21.487Z,63968.00
2023-07-28T11:16:21.537Z,23040.00
2023-07-28T11:17:21.545Z,20544.00
2023-07-28T11:18:21.557Z,31168.00
2023-07-28T11:19:21.585Z,37952.00
2023-07-28T11:20:21.623Z,29792.00
2023-07-28T11:21:21.639Z,24000.00
2023-07-28T11:22:21.669Z,19040.00
2023-07-28T11:23:21.697Z,15008.00
2023-07-28T11:24:21.726Z,12904.00
2023-07-28T11:25:21.754Z,11956.00
2023-07-28T11:26:21.782Z,6540.00
2023-07-28T11:27:21.814Z,4684.00
2023-07-28T11:28:21.855Z,5896.00
2023-07-28T11:29:21.864Z,8556.00
2023-07-28T11:30:21.892Z,13112.00
2023-07-28T11:31:21.941Z,13692.00
2023-07-28T11:32:21.944Z,26336.00
2023-07-28T11:33:21.971Z,27936.00
2023-07-28T11:34:22.044Z,26912.00
2023-07-28T11:35:22.027Z,27552.00
2023-07-28T11:36:22.051Z,27136.00
2023-07-28T11:37:22.078Z,30048.00
2023-07-28T11:38:22.103Z,84320.00
2023-07-28T11:39:22.128Z,50592.00
2023-07-28T11:40:22.157Z,88992.00
2023-07-28T11:41:22.181Z,90912.00
2023-07-28T11:42:22.219Z,40320.00
2023-07-28T11:43:22.235Z,34592.00
2023-07-28T11:44:22.259Z,36064.00
2023-07-28T11:45:22.291Z,60160.00
2023-07-28T11:46:22.355Z,83840.00
2023-07-28T11:47:22.361Z,88160.00
2023-07-28T11:48:22.386Z,33056.00
2023-07-28T11:49:22.395Z,59616.00
2023-07-28T11:50:22.423Z,34944.00
2023-07-28T11:51:22.453Z,18560.00
2023-07-28T11:52:23.728Z,16864.00
2023-07-28T11:53:22.509Z,18176.00
2023-07-28T11:54:22.540Z,82688.00
2023-07-28T11:55:22.564Z,76064.00
2023-07-28T11:56:22.594Z,73600.00
2023-07-28T11:57:22.670Z,15256.00
2023-07-28T11:58:24.274Z,15160.00
2023-07-28T11:59:22.684Z,77984.00
2023-07-28T12:00:22.715Z,27648.00
2023-07-28T12:01:22.773Z,20864.00
2023-07-28T12:02:24.484Z,16712.00
2023-07-28T12:03:22.868Z,17056.00
2023-07-28T12:05:22.950Z,11316.00
2023-07-28T12:06:28.875Z,11088.00
2023-07-28T12:07:22.973Z,9948.00
2023-07-28T12:08:22.938Z,9100.00
2023-07-28T12:09:22.976Z,11004.00
2023-07-28T12:12:25.338Z,12328.00
2023-07-28T12:19:23.300Z,32640.00
2023-07-28T12:20:23.303Z,26240.00
2023-07-28T12:21:23.288Z,23744.00
2023-07-28T12:22:23.313Z,21984.00
2023-07-28T12:24:23.365Z,11640.00
2023-07-28T12:25:23.392Z,8248.00
2023-07-28T12:26:23.425Z,7616.00
2023-07-28T12:27:23.780Z,9488.00